Time;durP1;ratioP1;P1;durP2;ratioP2;P2;SDS_P1;SDS_P2;PMS_P1;PMS_P2;Temp;Humidity;BMP_temperature;BMP_pressure;BME280_temperature;BME280_humidity;BME280_pressure;Samples;Min_cycle;Max_cycle;Signal;HPM_P1;HPM_P2
2021/09/14 00:01:10;;;;;;;3.35;2.63;;;19.50;61.00;;;;;;5053101;28;20055;-70
2021/09/14 00:03:36;;;;;;;5.20;2.90;;;19.50;61.10;;;;;;5053552;28;20350;-69
2021/09/14 00:06:02;;;;;;;3.55;2.47;;;19.50;61.40;;;;;;5053517;28;20546;-69
2021/09/14 00:08:28;;;;;;;4.13;2.63;;;19.40;61.20;;;;;;5040461;28;20387;-69
2021/09/14 00:10:53;;;;;;;3.35;2.83;;;19.40;61.30;;;;;;5053003;28;20037;-69
2021/09/14 00:13:19;;;;;;;12.02;3.33;;;19.40;61.40;;;;;;5053265;28;20043;-69
2021/09/14 00:15:45;;;;;;;3.13;2.67;;;19.40;61.40;;;;;;5053347;28;20025;-70
2021/09/14 00:18:11;;;;;;;3.17;2.65;;;19.40;61.50;;;;;;5053176;28;20029;-69
2021/09/14 00:20:37;;;;;;;3.33;2.92;;;19.40;61.50;;;;;;5052848;28;20108;-69
2021/09/14 00:23:03;;;;;;;5.43;3.35;;;19.30;61.50;;;;;;5052696;28;20033;-69
2021/09/14 00:25:30;;;;;;;3.70;3.25;;;19.30;61.70;;;;;;5049652;28;20017;-69
2021/09/14 00:27:56;;;;;;;2.92;2.53;;;19.30;61.50;;;;;;5052529;28;20099;-69
2021/09/14 00:30:22;;;;;;;5.32;3.78;;;19.20;61.60;;;;;;5052085;28;20505;-69
2021/09/14 00:32:47;;;;;;;3.80;2.78;;;19.20;61.60;;;;;;5052515;28;20021;-69
2021/09/14 00:35:13;;;;;;;3.42;3.05;;;19.20;61.70;;;;;;5053048;28;20028;-69
2021/09/14 00:37:39;;;;;;;4.85;2.50;;;19.20;61.70;;;;;;5052569;28;20029;-69
2021/09/14 00:40:05;;;;;;;3.17;2.85;;;19.10;61.80;;;;;;5052743;28;20033;-69
2021/09/14 00:42:32;;;;;;;3.38;2.90;;;19.10;61.90;;;;;;5053002;28;20060;-69
2021/09/14 00:44:58;;;;;;;3.35;2.80;;;19.10;61.90;;;;;;5052986;28;20516;-69
2021/09/14 00:47:24;;;;;;;5.30;3.10;;;19.10;61.90;;;;;;5052768;28;20108;-69
2021/09/14 00:49:50;;;;;;;8.48;3.30;;;19.00;62.00;;;;;;5052698;28;20104;-70
2021/09/14 00:52:15;;;;;;;6.85;3.13;;;19.00;62.20;;;;;;5052699;28;20028;-69
2021/09/14 00:54:43;;;;;;;3.47;2.97;;;19.00;62.30;;;;;;5052886;28;20128;-69
2021/09/14 00:57:09;;;;;;;3.95;2.92;;;19.00;62.30;;;;;;5052384;28;20031;-69
2021/09/14 00:59:35;;;;;;;3.85;3.20;;;18.90;62.20;;;;;;5052327;28;20104;-69
2021/09/14 01:02:01;;;;;;;4.55;3.00;;;18.90;62.30;;;;;;5052327;28;20021;-69
2021/09/14 01:04:27;;;;;;;3.90;2.88;;;18.90;62.40;;;;;;5052499;28;20017;-69
2021/09/14 01:06:53;;;;;;;4.55;2.58;;;18.90;62.50;;;;;;5052486;28;20524;-70
2021/09/14 01:09:20;;;;;;;4.05;3.28;;;18.90;62.50;;;;;;5052435;28;20033;-69
2021/09/14 01:11:46;;;;;;;4.63;4.13;;;18.90;62.80;;;;;;5052429;28;20057;-69
2021/09/14 01:14:12;;;;;;;5.78;3.75;;;18.90;62.90;;;;;;5052621;28;20360;-69
2021/09/14 01:16:39;;;;;;;4.57;3.03;;;18.80;62.80;;;;;;5034456;28;20028;-69
2021/09/14 01:19:07;;;;;;;3.75;3.38;;;18.80;63.00;;;;;;5034407;28;20025;-69
2021/09/14 01:21:33;;;;;;;3.70;3.13;;;18.90;63.10;;;;;;5021041;28;20390;-69
2021/09/14 01:24:00;;;;;;;6.10;3.40;;;18.80;62.90;;;;;;5052349;28;20025;-69
2021/09/14 01:26:27;;;;;;;5.50;3.47;;;18.90;63.20;;;;;;5051895;28;20378;-69
2021/09/14 01:28:53;;;;;;;6.47;3.50;;;18.80;64.00;;;;;;5052205;28;20041;-69
2021/09/14 01:31:20;;;;;;;4.28;3.65;;;18.80;63.20;;;;;;5052061;28;20146;-70
2021/09/14 01:33:55;;;;;;;3.95;3.50;;;18.80;63.20;;;;;;5052471;28;20043;-69
2021/09/14 01:36:21;;;;;;;4.00;3.45;;;18.80;63.30;;;;;;5052080;28;20039;-69
2021/09/14 01:38:48;;;;;;;8.30;3.47;;;18.80;63.20;;;;;;5045809;28;20453;-69
2021/09/14 01:41:14;;;;;;;8.82;3.45;;;18.80;63.20;;;;;;5047948;28;20048;-70
2021/09/14 01:43:40;;;;;;;5.95;3.30;;;18.80;63.30;;;;;;5050992;28;20029;-69
2021/09/14 01:46:07;;;;;;;4.40;3.42;;;18.80;63.50;;;;;;5052184;28;20035;-69
2021/09/14 01:48:33;;;;;;;7.13;3.33;;;18.70;63.20;;;;;;5053838;28;20033;-69
2021/09/14 01:50:59;;;;;;;3.50;2.83;;;18.70;63.30;;;;;;5042802;28;20433;-69
2021/09/14 01:53:26;;;;;;;4.68;3.10;;;18.70;63.20;;;;;;5055988;28;20072;-69
2021/09/14 01:55:53;;;;;;;4.93;3.28;;;18.70;63.20;;;;;;5055845;28;20445;-69
2021/09/14 01:58:20;;;;;;;5.22;3.33;;;18.70;63.30;;;;;;5055768;28;20032;-69
2021/09/14 02:01:23;;;;;;;5.72;3.42;;;18.70;63.30;;;;;;5055404;28;20382;-69
2021/09/14 02:41:54;;;;;;;4.78;3.80;;;18.50;63.50;;;;;;5052916;28;20584;-69
2021/09/14 02:44:43;;;;;;;5.50;3.85;;;18.50;63.60;;;;;;5055095;28;20036;-69
2021/09/14 03:00:47;;;;;;;3.53;3.17;;;18.40;63.50;;;;;;5054756;28;20040;-69
2021/09/14 03:03:13;;;;;;;6.05;3.80;;;18.40;63.60;;;;;;5053956;28;20036;-69
2021/09/14 03:05:38;;;;;;;6.78;4.00;;;18.40;63.90;;;;;;5054546;28;20029;-69
2021/09/14 03:08:04;;;;;;;6.43;3.58;;;18.40;63.90;;;;;;5053704;28;20382;-69
2021/09/14 03:10:30;;;;;;;3.60;3.13;;;18.40;64.00;;;;;;5054539;28;20059;-69
2021/09/14 03:12:56;;;;;;;6.03;3.80;;;18.40;64.20;;;;;;5053990;28;20024;-69
2021/09/14 03:15:22;;;;;;;5.15;3.72;;;18.40;64.30;;;;;;5054292;28;20013;-69
2021/09/14 03:17:47;;;;;;;8.68;4.97;;;18.30;64.30;;;;;;5054045;28;20029;-69
2021/09/14 03:20:13;;;;;;;6.45;4.55;;;18.30;64.60;;;;;;5054076;28;20033;-69
2021/09/14 03:22:39;;;;;;;7.13;4.70;;;18.30;65.00;;;;;;5053698;28;20063;-69
2021/09/14 03:25:06;;;;;;;4.70;3.80;;;18.30;64.90;;;;;;5054051;28;20029;-69
2021/09/14 03:27:33;;;;;;;7.03;4.07;;;18.30;64.80;;;;;;5053983;28;20036;-69
2021/09/14 03:29:59;;;;;;;8.38;4.68;;;18.30;65.10;;;;;;5053534;28;20021;-69
2021/09/14 03:32:25;;;;;;;8.20;3.90;;;18.30;65.10;;;;;;5053781;28;20113;-69
2021/09/14 03:34:51;;;;;;;8.50;4.20;;;18.30;65.00;;;;;;5053968;28;20021;-69
2021/09/14 03:37:16;;;;;;;6.38;4.90;;;18.30;65.20;;;;;;5053824;28;20094;-69
2021/09/14 03:39:42;;;;;;;5.30;4.32;;;18.30;65.20;;;;;;5053929;28;20057;-69
2021/09/14 03:42:08;;;;;;;10.20;4.38;;;18.30;65.30;;;;;;5053363;28;20151;-70
2021/09/14 03:44:33;;;;;;;10.38;4.55;;;18.30;65.30;;;;;;5053694;28;20021;-69
2021/09/14 03:46:59;;;;;;;5.00;4.38;;;18.30;65.20;;;;;;5053171;28;20029;-69
2021/09/14 03:49:25;;;;;;;9.05;4.53;;;18.30;65.50;;;;;;5053800;28;20048;-69
2021/09/14 03:51:51;;;;;;;5.75;4.00;;;18.20;65.40;;;;;;5052189;28;20111;-69
2021/09/14 03:54:19;;;;;;;6.13;4.22;;;18.20;65.30;;;;;;5033770;28;20029;-69
2021/09/14 03:56:45;;;;;;;10.63;4.25;;;18.20;65.50;;;;;;5049681;28;20027;-69
2021/09/14 03:59:11;;;;;;;10.55;5.10;;;18.20;65.50;;;;;;5035384;28;20043;-69
2021/09/14 04:01:40;;;;;;;6.57;4.47;;;18.20;65.60;;;;;;5053147;28;20031;-69
2021/09/14 04:04:15;;;;;;;9.55;5.03;;;18.20;65.60;;;;;;5052990;28;20024;-69
2021/09/14 04:09:27;;;;;;;8.05;4.45;;;18.10;65.90;;;;;;5012070;28;20490;-69
2021/09/14 04:11:52;;;;;;;5.80;4.07;;;18.10;65.70;;;;;;5052144;28;20079;-69
2021/09/14 04:14:18;;;;;;;6.95;4.70;;;18.10;65.70;;;;;;5051341;28;20020;-69
2021/09/14 04:16:44;;;;;;;13.75;5.57;;;18.10;65.70;;;;;;5053033;28;20533;-69
2021/09/14 04:19:10;;;;;;;5.78;4.63;;;18.10;65.70;;;;;;5053158;28;20021;-69
2021/09/14 04:21:36;;;;;;;9.88;5.00;;;18.10;65.70;;;;;;5052655;28;20100;-69
2021/09/14 04:24:01;;;;;;;10.80;5.63;;;18.00;65.70;;;;;;5053170;28;20064;-70
2021/09/14 04:26:27;;;;;;;9.05;5.47;;;18.00;65.70;;;;;;5052366;28;20410;-69
2021/09/14 04:28:53;;;;;;;9.90;5.32;;;18.00;65.90;;;;;;5052963;28;20382;-69
2021/09/14 04:31:19;;;;;;;8.20;5.35;;;18.00;65.80;;;;;;5052745;28;20119;-68
2021/09/14 04:33:44;;;;;;;11.10;6.10;;;18.00;65.90;;;;;;5052588;28;20702;-69
2021/09/14 04:36:10;;;;;;;11.68;5.38;;;18.00;66.00;;;;;;5051940;28;20060;-69
2021/09/14 04:38:36;;;;;;;16.05;9.32;;;17.90;66.00;;;;;;5052213;28;20029;-69
2021/09/14 04:41:02;;;;;;;13.55;7.00;;;17.90;65.90;;;;;;5051964;28;20060;-69
2021/09/14 04:43:28;;;;;;;8.85;6.18;;;18.00;66.10;;;;;;5052934;28;20024;-69
2021/09/14 04:45:53;;;;;;;9.10;5.50;;;18.00;66.00;;;;;;5052833;28;20021;-69
2021/09/14 04:48:19;;;;;;;14.60;6.35;;;17.90;66.00;;;;;;5052871;28;20089;-69
2021/09/14 04:50:45;;;;;;;13.00;7.25;;;17.90;66.00;;;;;;5034930;28;20029;-69
2021/09/14 04:53:11;;;;;;;13.02;6.35;;;17.90;66.20;;;;;;5052786;28;20059;-70
2021/09/14 04:55:36;;;;;;;17.83;6.93;;;17.90;66.30;;;;;;5052790;28;20017;-69
2021/09/14 04:58:02;;;;;;;11.85;6.60;;;17.90;66.40;;;;;;5052218;28;20040;-69
2021/09/14 05:00:28;;;;;;;11.05;6.55;;;17.90;66.40;;;;;;5052731;28;20025;-69
2021/09/14 05:02:54;;;;;;;10.13;5.70;;;17.90;66.30;;;;;;5052635;28;20028;-69
2021/09/14 05:05:20;;;;;;;14.75;6.45;;;17.90;66.30;;;;;;5052253;28;20036;-69
2021/09/14 05:07:46;;;;;;;10.93;6.57;;;17.90;66.40;;;;;;5052511;28;20029;-69
2021/09/14 05:10:11;;;;;;;12.10;5.35;;;17.90;66.50;;;;;;5052511;28;20043;-69
2021/09/14 05:12:37;;;;;;;9.70;6.00;;;17.90;66.50;;;;;;5052528;28;20074;-69
2021/09/14 05:15:04;;;;;;;13.32;7.05;;;17.90;66.50;;;;;;5052431;28;20029;-69
2021/09/14 05:17:29;;;;;;;10.23;6.18;;;17.90;66.60;;;;;;5051742;28;20035;-70
2021/09/14 05:19:55;;;;;;;10.55;6.05;;;17.90;66.70;;;;;;5052273;28;20104;-69
2021/09/14 05:22:28;;;;;;;10.20;6.13;;;17.90;66.70;;;;;;5052135;28;20150;-69
2021/09/14 05:24:54;;;;;;;10.82;5.47;;;17.90;66.80;;;;;;5056323;28;20402;-69
2021/09/14 05:27:20;;;;;;;10.90;6.22;;;18.00;66.80;;;;;;5056456;28;20021;-69
2021/09/14 05:29:46;;;;;;;20.13;6.70;;;18.00;66.90;;;;;;5056249;28;20021;-69
2021/09/14 05:32:14;;;;;;;9.93;5.63;;;18.10;66.80;;;;;;5055724;28;20049;-69
2021/09/14 05:34:40;;;;;;;12.68;5.63;;;18.00;66.90;;;;;;5055583;28;20043;-70
2021/09/14 05:37:05;;;;;;;8.15;5.47;;;18.10;67.00;;;;;;5055695;28;20478;-70
2021/09/14 05:39:31;;;;;;;8.10;5.50;;;18.20;67.20;;;;;;5056161;28;20417;-69
2021/09/14 05:41:57;;;;;;;8.23;4.57;;;18.20;67.20;;;;;;5056202;28;20480;-69
2021/09/14 05:44:23;;;;;;;9.82;5.20;;;18.20;67.10;;;;;;5056082;28;20509;-70
2021/09/14 05:46:48;;;;;;;7.40;4.68;;;18.30;67.10;;;;;;5055820;28;20036;-69
2021/09/14 05:49:14;;;;;;;9.02;5.50;;;18.30;67.10;;;;;;5053713;28;20025;-69
2021/09/14 05:51:40;;;;;;;14.55;6.38;;;18.40;67.10;;;;;;5054550;28;20376;-70
2021/09/14 05:54:06;;;;;;;8.52;5.45;;;18.40;67.10;;;;;;5054322;28;20033;-69
2021/09/14 05:56:31;;;;;;;13.50;6.18;;;18.50;66.90;;;;;;5037157;28;20065;-70
2021/09/14 05:59:02;;;;;;;11.93;6.93;;;18.60;66.70;;;;;;5054279;28;20028;-70
2021/09/14 06:01:28;;;;;;;9.18;5.72;;;18.70;66.60;;;;;;5034721;28;20390;-69
2021/09/14 06:03:55;;;;;;;9.85;6.78;;;18.70;66.30;;;;;;5037203;28;20029;-69
2021/09/14 06:06:21;;;;;;;9.45;6.05;;;18.80;66.20;;;;;;5036743;28;20087;-69
2021/09/14 06:08:47;;;;;;;10.30;6.63;;;18.80;66.10;;;;;;5054316;28;20021;-69
2021/09/14 06:11:12;;;;;;;11.52;7.30;;;18.90;66.00;;;;;;5054903;28;20036;-69
2021/09/14 06:13:40;;;;;;;12.05;6.53;;;19.00;65.70;;;;;;5055026;28;20100;-70
2021/09/14 06:16:06;;;;;;;12.68;6.93;;;19.10;65.60;;;;;;5055027;28;20025;-69
2021/09/14 06:18:32;;;;;;;10.02;6.50;;;19.10;65.30;;;;;;5054827;28;20021;-70
2021/09/14 06:20:58;;;;;;;12.80;6.40;;;19.20;65.20;;;;;;5054955;28;20108;-68
2021/09/14 06:23:23;;;;;;;10.13;6.93;;;19.20;65.20;;;;;;5055233;28;20133;-70
2021/09/14 06:25:49;;;;;;;12.35;6.05;;;19.30;65.10;;;;;;5054587;28;20034;-70
2021/09/14 06:28:15;;;;;;;10.45;6.25;;;19.30;65.00;;;;;;5054698;28;20025;-70
2021/09/14 06:30:41;;;;;;;8.38;6.07;;;19.40;65.10;;;;;;5051683;28;20049;-69
2021/09/14 06:33:06;;;;;;;9.43;6.25;;;19.50;65.00;;;;;;5054197;28;20024;-70
2021/09/14 06:35:35;;;;;;;9.18;6.53;;;19.60;65.00;;;;;;5053512;28;20040;-70
2021/09/14 06:38:03;;;;;;;8.90;6.57;;;19.60;64.80;;;;;;5053880;28;20024;-70
2021/09/14 06:40:32;;;;;;;10.05;6.47;;;19.70;64.70;;;;;;5049841;28;20112;-69
2021/09/14 06:42:58;;;;;;;10.82;6.60;;;19.80;64.70;;;;;;5054356;28;20098;-70
2021/09/14 06:45:24;;;;;;;11.20;6.82;;;19.90;64.60;;;;;;5054541;28;20483;-69
2021/09/14 06:47:49;;;;;;;11.95;6.85;;;20.00;64.40;;;;;;5050714;28;20024;-69
2021/09/14 06:50:20;;;;;;;9.23;6.55;;;20.00;64.30;;;;;;5051196;28;20382;-70
2021/09/14 06:52:48;;;;;;;9.20;7.25;;;20.10;63.90;;;;;;5053928;28;20139;-72
2021/09/14 06:55:14;;;;;;;12.82;8.10;;;20.10;63.70;;;;;;5054222;28;20017;-70
2021/09/14 06:57:40;;;;;;;20.00;9.50;;;20.20;63.40;;;;;;5056675;28;20406;-71
2021/09/14 07:00:07;;;;;;;21.75;10.38;;;20.30;63.10;;;;;;5061919;28;20047;-71
2021/09/14 07:02:33;;;;;;;17.63;10.75;;;20.30;62.60;;;;;;5052451;28;20041;-71
2021/09/14 07:04:58;;;;;;;16.33;10.38;;;20.40;62.80;;;;;;5052185;28;20374;-70
2021/09/14 07:07:24;;;;;;;17.40;10.75;;;20.50;62.70;;;;;;5054237;28;20021;-72
2021/09/14 07:09:50;;;;;;;18.52;11.32;;;20.50;62.50;;;;;;5054048;28;20425;-70
2021/09/14 07:12:16;;;;;;;18.55;9.55;;;20.60;62.60;;;;;;5051175;28;20063;-71
2021/09/14 07:14:41;;;;;;;13.02;7.50;;;20.70;62.20;;;;;;5053918;28;20025;-71
2021/09/14 07:17:09;;;;;;;12.75;7.50;;;20.80;61.40;;;;;;5053791;28;20025;-71
2021/09/14 07:19:35;;;;;;;10.45;8.32;;;20.90;61.30;;;;;;5053517;28;20029;-71
2021/09/14 07:22:00;;;;;;;19.27;10.40;;;21.00;61.00;;;;;;5024945;28;20075;-70
2021/09/14 07:24:26;;;;;;;18.58;10.43;;;21.10;61.00;;;;;;5048871;28;20021;-71
2021/09/14 07:26:53;;;;;;;24.27;11.75;;;21.20;60.20;;;;;;5053789;28;20394;-72
2021/09/14 07:29:19;;;;;;;17.83;11.00;;;21.30;59.90;;;;;;5053894;28;20348;-72
2021/09/14 07:31:45;;;;;;;19.65;12.32;;;21.40;59.80;;;;;;5053500;28;20037;-71
2021/09/14 07:34:11;;;;;;;22.40;12.02;;;21.50;59.70;;;;;;5053701;28;20088;-72
2021/09/14 07:36:37;;;;;;;17.13;11.27;;;21.60;59.50;;;;;;5053796;28;20032;-70
2021/09/14 07:39:04;;;;;;;18.30;10.30;;;21.70;59.50;;;;;;5036567;28;20052;-71
2021/09/14 07:41:30;;;;;;;17.33;10.77;;;21.80;59.50;;;;;;5052867;28;20029;-71
2021/09/14 07:43:55;;;;;;;16.83;10.10;;;21.90;59.10;;;;;;5053227;28;20456;-71
2021/09/14 07:46:21;;;;;;;27.00;12.18;;;22.00;59.00;;;;;;5052518;28;20552;-72
2021/09/14 07:48:47;;;;;;;25.63;12.43;;;22.10;59.00;;;;;;5053497;28;20079;-72
2021/09/14 07:51:13;;;;;;;23.40;12.00;;;22.10;58.60;;;;;;5053458;28;20131;-72
2021/09/14 07:53:38;;;;;;;23.13;12.25;;;22.20;58.50;;;;;;5053488;28;20020;-71
2021/09/14 07:56:04;;;;;;;18.35;11.20;;;22.20;58.40;;;;;;5053050;28;20083;-72
2021/09/14 07:58:30;;;;;;;16.55;11.20;;;22.30;58.20;;;;;;5053553;28;20029;-71
2021/09/14 08:00:56;;;;;;;15.27;11.13;;;22.40;58.20;;;;;;5053309;28;20033;-73
2021/09/14 08:03:21;;;;;;;21.15;11.27;;;22.50;59.00;;;;;;5053317;28;20032;-73
2021/09/14 08:05:47;;;;;;;20.20;12.43;;;22.50;58.10;;;;;;5061079;28;20078;-72
2021/09/14 08:08:13;;;;;;;25.98;11.57;;;22.50;57.80;;;;;;5060324;28;20112;-72
2021/09/14 08:10:39;;;;;;;18.30;11.35;;;22.60;57.70;;;;;;5051776;28;20497;-71
2021/09/14 08:13:05;;;;;;;17.15;11.13;;;22.60;57.60;;;;;;5052271;28;20024;-73
2021/09/14 08:15:31;;;;;;;18.48;12.13;;;22.70;57.60;;;;;;5052245;28;20066;-70
2021/09/14 08:17:59;;;;;;;15.13;10.48;;;22.80;56.80;;;;;;5048905;28;20033;-73
2021/09/14 08:20:25;;;;;;;18.98;11.73;;;22.80;57.00;;;;;;5054470;28;20033;-73
2021/09/14 08:22:51;;;;;;;14.20;9.15;;;22.80;56.60;;;;;;5053395;28;20024;-76
2021/09/14 08:25:17;;;;;;;18.58;10.82;;;22.90;56.60;;;;;;5036103;28;20028;-71
2021/09/14 08:27:43;;;;;;;15.23;8.23;;;22.90;56.20;;;;;;5053086;28;20029;-72
2021/09/14 08:30:09;;;;;;;10.82;7.40;;;23.00;56.30;;;;;;5052697;28;20032;-71
2021/09/14 08:32:35;;;;;;;10.23;6.82;;;23.10;56.00;;;;;;5070819;28;20354;-72
2021/09/14 08:35:01;;;;;;;10.57;7.18;;;23.20;56.00;;;;;;5068337;28;20025;-71
2021/09/14 08:37:27;;;;;;;13.85;8.55;;;23.20;56.00;;;;;;5053128;28;20033;-72
2021/09/14 08:39:52;;;;;;;10.40;7.30;;;23.30;55.50;;;;;;5052581;28;20049;-72
2021/09/14 08:42:20;;;;;;;11.57;6.65;;;23.30;55.50;;;;;;5052924;28;20103;-73
2021/09/14 08:44:45;;;;;;;10.77;7.22;;;23.40;54.70;;;;;;5052825;28;20021;-72
2021/09/14 08:47:11;;;;;;;12.90;7.85;;;23.50;53.80;;;;;;5052724;28;20111;-72
2021/09/14 08:49:37;;;;;;;18.65;9.60;;;23.50;54.00;;;;;;5052764;28;20021;-71
2021/09/14 08:52:04;;;;;;;12.25;8.00;;;23.60;54.20;;;;;;5052820;28;20067;-72
2021/09/14 08:54:30;;;;;;;12.32;7.72;;;23.70;54.10;;;;;;5052842;28;20029;-71
2021/09/14 08:56:56;;;;;;;8.52;6.45;;;23.80;53.90;;;;;;5052739;28;20509;-69
2021/09/14 08:59:31;;;;;;;9.07;6.20;;;23.80;53.70;;;;;;5052780;28;20099;-70
2021/09/14 09:02:05;;;;;;;9.32;5.40;;;23.90;53.50;;;;;;5052668;28;20025;-71
2021/09/14 09:04:31;;;;;;;7.35;5.80;;;24.00;53.60;;;;;;5052870;28;20034;-81
2021/09/14 09:06:57;;;;;;;9.40;7.60;;;24.10;53.40;;;;;;5052528;28;20021;-80
2021/09/14 09:09:29;;;;;;;11.98;7.15;;;24.10;52.70;;;;;;5052670;28;20497;-81
2021/09/14 09:12:04;;;;;;;9.82;5.93;;;24.20;52.90;;;;;;5052707;28;20045;-74
2021/09/14 09:14:41;;;;;;;12.10;7.15;;;24.30;53.00;;;;;;5052689;28;20466;-73
2021/09/14 09:17:13;;;;;;;8.43;6.00;;;24.30;52.50;;;;;;5052444;28;20029;-71
2021/09/14 09:19:40;;;;;;;11.05;5.95;;;24.40;52.30;;;;;;5072095;28;20428;-73
2021/09/14 09:22:10;;;;;;;9.77;6.70;;;24.50;52.80;;;;;;5072521;28;20050;-70
2021/09/14 09:24:50;;;;;;;7.13;5.30;;;24.50;52.20;;;;;;5072477;28;20108;-68
2021/09/14 09:27:19;;;;;;;9.23;6.07;;;24.60;52.40;;;;;;5072314;28;20024;-68
2021/09/14 09:30:00;;;;;;;9.93;6.50;;;24.70;52.30;;;;;;5072431;28;20023;-69
2021/09/14 09:32:26;;;;;;;8.27;6.28;;;24.80;51.80;;;;;;5072402;28;20037;-69
2021/09/14 09:34:59;;;;;;;7.20;5.55;;;24.80;51.70;;;;;;5072292;28;20028;-71
2021/09/14 09:37:25;;;;;;;11.05;5.47;;;24.90;51.90;;;;;;5072121;28;20423;-71
2021/09/14 09:39:52;;;;;;;8.07;5.72;;;25.00;52.10;;;;;;5072299;28;20103;-71
2021/09/14 09:42:20;;;;;;;11.35;6.82;;;25.00;51.40;;;;;;5072231;28;20486;-78
2021/09/14 09:44:55;;;;;;;9.60;5.93;;;25.10;51.00;;;;;;5072056;28;20150;-72
2021/09/14 09:47:20;;;;;;;6.90;4.93;;;25.20;51.10;;;;;;5072207;28;20021;-70
2021/09/14 09:49:49;;;;;;;8.60;5.70;;;25.20;51.30;;;;;;5072343;28;20021;-71
2021/09/14 09:52:17;;;;;;;10.93;6.38;;;25.30;51.00;;;;;;5072330;28;20024;-72
2021/09/14 09:54:45;;;;;;;12.70;5.45;;;25.40;50.60;;;;;;5072096;28;20074;-72
2021/09/14 09:57:11;;;;;;;9.13;6.38;;;25.50;50.70;;;;;;5072261;28;20032;-70
2021/09/14 09:59:37;;;;;;;9.73;5.97;;;25.60;50.30;;;;;;5072031;28;20028;-70
2021/09/14 10:02:26;;;;;;;9.65;6.10;;;25.60;50.10;;;;;;5072114;28;20043;-71
2021/09/14 10:05:00;;;;;;;11.63;6.55;;;25.70;50.50;;;;;;5072221;28;20025;-71
2021/09/14 10:07:32;;;;;;;9.30;6.18;;;25.70;50.20;;;;;;5055628;28;20033;-70
2021/09/14 10:10:00;;;;;;;8.38;6.18;;;25.80;50.50;;;;;;5032615;28;20024;-71
2021/09/14 10:12:31;;;;;;;9.80;7.03;;;25.80;50.10;;;;;;5053923;28;20032;-75
2021/09/14 10:14:58;;;;;;;12.50;7.63;;;25.90;49.70;;;;;;5053762;28;20021;-75
2021/09/14 10:17:26;;;;;;;13.38;7.53;;;25.90;49.60;;;;;;5054721;28;20035;-73
2021/09/14 10:19:52;;;;;;;9.27;6.10;;;25.90;49.60;;;;;;5055314;28;20025;-77
2021/09/14 10:22:27;;;;;;;8.07;6.32;;;26.00;49.20;;;;;;5055456;28;20104;-76
2021/09/14 10:24:57;;;;;;;;;;;26.00;49.70;;;;;;5056193;28;20103;-76
2021/09/14 10:27:35;;;;;;;7.50;6.38;;;26.00;50.50;;;;;;5055152;28;19908;-75
2021/09/14 10:30:02;;;;;;;8.40;6.13;;;26.00;49.20;;;;;;5037345;28;20025;-73
2021/09/14 10:32:41;;;;;;;8.50;5.85;;;26.10;49.50;;;;;;5055184;28;20021;-73
2021/09/14 10:35:08;;;;;;;6.20;5.20;;;26.10;49.20;;;;;;5055131;28;20025;-71
2021/09/14 10:37:36;;;;;;;6.93;5.35;;;26.10;49.70;;;;;;5055196;28;20043;-71
2021/09/14 10:40:14;;;;;;;6.13;5.00;;;26.20;49.70;;;;;;5055297;28;20029;-72
2021/09/14 10:42:43;;;;;;;11.25;7.68;;;26.20;49.70;;;;;;5055050;28;20049;-69
2021/09/14 10:45:14;;;;;;;17.50;7.70;;;26.20;48.90;;;;;;5055071;28;20029;-69
2021/09/14 10:47:45;;;;;;;12.30;8.43;;;26.30;48.90;;;;;;5054816;28;20086;-70
2021/09/14 10:50:25;;;;;;;16.38;8.02;;;26.30;48.50;;;;;;5037123;28;20022;-72
2021/09/14 10:53:00;;;;;;;18.52;7.97;;;26.30;48.50;;;;;;5037139;28;20104;-72
2021/09/14 10:55:27;;;;;;;12.32;7.43;;;26.40;48.90;;;;;;5054976;28;20021;-69
2021/09/14 10:58:01;;;;;;;11.85;8.35;;;26.40;48.90;;;;;;5052469;28;20071;-68
2021/09/14 11:00:32;;;;;;;9.52;7.45;;;26.40;48.70;;;;;;5054745;28;20021;-69
2021/09/14 11:03:03;;;;;;;9.38;6.97;;;26.50;48.70;;;;;;5054309;28;20036;-70
2021/09/14 11:05:31;;;;;;;9.40;7.32;;;26.60;48.80;;;;;;5036535;28;20029;-67
2021/09/14 11:08:01;;;;;;;11.77;6.97;;;26.60;48.70;;;;;;5054254;28;20021;-68
2021/09/14 11:10:41;;;;;;;13.10;8.50;;;26.60;48.90;;;;;;5054528;28;20029;-68
2021/09/14 11:13:09;;;;;;;15.38;7.45;;;26.60;48.30;;;;;;5054516;28;20048;-67
2021/09/14 11:15:34;;;;;;;10.00;6.55;;;26.70;48.30;;;;;;5054205;28;20021;-69
2021/09/14 11:18:01;;;;;;;15.10;9.32;;;26.80;48.70;;;;;;5054306;28;20032;-69
2021/09/14 11:20:29;;;;;;;12.93;8.40;;;26.80;47.60;;;;;;5053298;28;20033;-68
2021/09/14 11:22:57;;;;;;;10.90;8.20;;;26.80;48.00;;;;;;5054052;28;20371;-71
2021/09/14 11:25:26;;;;;;;10.95;8.15;;;26.80;47.90;;;;;;5054141;28;20024;-71
2021/09/14 11:28:09;;;;;;;13.50;8.45;;;26.80;47.80;;;;;;5036212;28;20032;-69
2021/09/14 11:30:35;;;;;;;17.47;9.00;;;26.90;47.80;;;;;;5053955;28;20045;-70
2021/09/14 11:33:03;;;;;;;16.83;10.50;;;26.90;47.60;;;;;;5054092;28;20251;-69
2021/09/14 11:35:39;;;;;;;18.40;10.05;;;27.00;47.10;;;;;;5054148;28;20017;-73
2021/09/14 11:38:07;;;;;;;14.27;10.32;;;27.00;47.00;;;;;;5053965;28;20085;-71
2021/09/14 11:40:43;;;;;;;13.48;9.68;;;27.00;46.90;;;;;;5054069;28;20472;-71
2021/09/14 11:43:10;;;;;;;16.90;10.20;;;27.00;46.70;;;;;;5054355;28;20025;-71
2021/09/14 11:45:36;;;;;;;10.05;8.55;;;27.10;46.60;;;;;;5053837;28;20025;-70
2021/09/14 11:48:02;;;;;;;12.05;8.02;;;27.10;46.30;;;;;;5053286;28;20655;-71
2021/09/14 11:50:36;;;;;;;14.43;8.07;;;27.10;46.70;;;;;;5053663;28;20048;-70
2021/09/14 11:53:02;;;;;;;15.48;7.57;;;27.10;46.40;;;;;;5053635;28;20029;-70
2021/09/14 11:55:28;;;;;;;13.60;7.47;;;27.20;46.00;;;;;;5053464;28;20032;-69
2021/09/14 11:57:55;;;;;;;11.60;6.28;;;27.20;45.30;;;;;;5053513;28;20028;-70
2021/09/14 12:00:21;;;;;;;9.13;6.20;;;27.30;45.90;;;;;;5053357;28;20035;-70
2021/09/14 12:02:50;;;;;;;7.45;6.00;;;27.30;45.60;;;;;;5053027;28;20049;-70
2021/09/14 12:05:22;;;;;;;10.38;7.20;;;27.40;45.70;;;;;;5053289;28;20104;-69
2021/09/14 12:07:56;;;;;;;14.00;7.18;;;27.40;44.90;;;;;;5053114;28;20024;-68
2021/09/14 12:10:22;;;;;;;9.85;5.28;;;27.50;44.90;;;;;;5049464;28;20070;-68
2021/09/14 12:12:55;;;;;;;14.35;6.10;;;27.50;45.20;;;;;;5052934;28;20025;-69
2021/09/14 12:15:28;;;;;;;7.78;5.05;;;27.60;44.90;;;;;;5034823;28;20429;-69
2021/09/14 12:18:04;;;;;;;8.77;5.47;;;27.70;44.90;;;;;;5052202;28;20020;-70
2021/09/14 12:20:29;;;;;;;13.50;7.28;;;27.70;44.50;;;;;;5053192;28;20025;-69
2021/09/14 12:22:55;;;;;;;10.52;5.90;;;27.80;43.60;;;;;;5053163;28;20115;-72
2021/09/14 12:25:21;;;;;;;13.13;5.72;;;27.80;44.20;;;;;;5053132;28;20058;-71
2021/09/14 12:27:46;;;;;;;10.27;5.25;;;27.90;43.80;;;;;;5052821;28;20036;-71
2021/09/14 12:30:12;;;;;;;8.88;5.82;;;27.90;43.60;;;;;;5052687;28;20031;-72
2021/09/14 12:32:38;;;;;;;12.43;5.32;;;28.00;43.10;;;;;;5052490;28;20025;-71
2021/09/14 12:35:05;;;;;;;9.93;5.05;;;28.00;42.90;;;;;;5052068;28;20378;-70
2021/09/14 12:37:30;;;;;;;11.05;5.32;;;28.10;43.50;;;;;;5052710;28;20052;-70
2021/09/14 12:39:56;;;;;;;6.78;4.63;;;28.10;42.60;;;;;;5053287;28;20490;-70
2021/09/14 12:42:22;;;;;;;8.85;5.32;;;28.10;42.40;;;;;;5057816;28;20028;-72
2021/09/14 12:44:47;;;;;;;8.55;5.18;;;28.20;42.70;;;;;;5052590;28;20028;-70
2021/09/14 12:47:13;;;;;;;17.23;5.57;;;28.20;40.50;;;;;;5035541;28;20393;-70
2021/09/14 12:49:39;;;;;;;7.38;4.70;;;28.20;40.50;;;;;;5063769;28;20031;-70
2021/09/14 12:52:05;;;;;;;7.18;4.53;;;28.30;41.00;;;;;;5052694;28;20023;-69
2021/09/14 12:54:31;;;;;;;8.65;3.80;;;28.30;41.40;;;;;;5043433;28;20017;-70
2021/09/14 12:56:57;;;;;;;6.75;4.13;;;28.30;41.60;;;;;;5052424;28;20447;-72
2021/09/14 12:59:23;;;;;;;6.65;3.65;;;28.40;41.30;;;;;;5052030;28;20145;-70
2021/09/14 13:01:48;;;;;;;14.20;5.13;;;28.40;41.80;;;;;;5051520;28;20410;-76
2021/09/14 13:04:14;;;;;;;7.72;3.30;;;28.40;41.60;;;;;;5052638;28;20036;-72
2021/09/14 13:06:40;;;;;;;14.30;4.28;;;28.50;41.30;;;;;;5052241;28;20445;-72
2021/09/14 13:09:06;;;;;;;12.05;3.80;;;28.50;41.00;;;;;;5052191;28;20433;-71
2021/09/14 13:11:31;;;;;;;6.32;3.85;;;28.50;40.50;;;;;;5034503;28;20029;-71
2021/09/14 13:16:41;;;;;;;8.82;4.03;;;28.60;40.00;;;;;;5049620;28;20455;-71
2021/09/14 13:19:07;;;;;;;5.88;3.58;;;28.70;40.20;;;;;;5042950;28;20056;-72
2021/09/14 13:21:33;;;;;;;4.95;2.90;;;28.70;39.40;;;;;;5051281;28;20033;-71
2021/09/14 13:23:59;;;;;;;3.65;2.65;;;28.70;38.20;;;;;;5051792;28;20091;-73
2021/09/14 13:26:25;;;;;;;5.05;3.40;;;28.80;38.10;;;;;;5051977;28;20083;-67
2021/09/14 13:28:51;;;;;;;3.95;2.65;;;28.80;39.00;;;;;;5051889;28;20025;-69
2021/09/14 13:31:18;;;;;;;7.88;3.63;;;28.80;37.60;;;;;;5051764;28;20037;-71
2021/09/14 13:33:45;;;;;;;5.65;2.88;;;28.80;37.80;;;;;;5051190;28;20444;-70
2021/09/14 13:36:12;;;;;;;4.97;2.90;;;28.80;38.10;;;;;;5052042;28;20029;-70
2021/09/14 13:38:38;;;;;;;7.20;3.65;;;28.90;38.10;;;;;;5037544;28;20466;-71